Time;durP1;ratioP1;P1;durP2;ratioP2;P2;SDS_P1;SDS_P2;PMS_P1;PMS_P2;Temp;Humidity;BMP_temperature;BMP_pressure;BME280_temperature;BME280_humidity;BME280_pressure;Samples;Min_cycle;Max_cycle;Signal;HPM_P1;HPM_P2
2023/03/12 00:00:07;;;;;;;7.80;3.60;;;-0.90;96.80;;;;;;5053390;28;20046;-65
2023/03/12 00:02:33;;;;;;;8.80;4.22;;;-1.00;96.80;;;;;;5052846;28;20467;-65
2023/03/12 00:04:58;;;;;;;8.88;4.20;;;-1.10;97.30;;;;;;5049034;28;20025;-65
2023/03/12 00:07:24;;;;;;;11.73;4.18;;;-1.20;97.70;;;;;;5055687;28;20025;-65
2023/03/12 00:09:49;;;;;;;9.23;3.28;;;-1.40;98.00;;;;;;5052531;28;20036;-65
2023/03/12 00:12:15;;;;;;;7.60;3.05;;;-1.40;98.00;;;;;;5042466;28;20071;-65
2023/03/12 00:14:44;;;;;;;7.57;3.22;;;-1.50;98.00;;;;;;5036011;28;20445;-65
2023/03/12 00:17:09;;;;;;;7.72;3.38;;;-1.40;98.00;;;;;;5038494;28;20029;-65
2023/03/12 00:19:35;;;;;;;9.00;3.78;;;-1.40;98.00;;;;;;5050120;28;20051;-63
2023/03/12 00:22:00;;;;;;;5.30;2.65;;;-1.40;98.00;;;;;;5054462;28;20142;-63
2023/03/12 00:24:26;;;;;;;6.32;3.35;;;-1.40;98.00;;;;;;5049380;28;20040;-63
2023/03/12 00:26:51;;;;;;;9.05;3.45;;;-1.40;98.00;;;;;;5047858;28;20052;-65
2023/03/12 00:29:17;;;;;;;9.35;3.60;;;-1.40;98.00;;;;;;5053582;28;20037;-64
2023/03/12 00:31:42;;;;;;;7.07;2.80;;;-1.50;98.00;;;;;;5053081;28;20020;-65
2023/03/12 00:34:09;;;;;;;7.47;3.63;;;-1.40;98.00;;;;;;5054896;28;20091;-65
2023/03/12 00:36:34;;;;;;;9.73;3.25;;;-1.30;97.90;;;;;;5054624;28;20037;-65
2023/03/12 00:39:00;;;;;;;6.20;3.10;;;-1.40;98.00;;;;;;5049995;28;20086;-65
2023/03/12 00:41:27;;;;;;;8.93;2.92;;;-1.40;98.00;;;;;;5056577;28;20021;-65
2023/03/12 00:43:53;;;;;;;11.48;3.08;;;-1.40;97.70;;;;;;5056559;28;20495;-65
2023/03/12 00:46:18;;;;;;;8.70;3.05;;;-1.40;97.90;;;;;;5054723;28;20029;-65
2023/03/12 00:48:45;;;;;;;6.22;3.00;;;-1.30;97.20;;;;;;5058211;28;20032;-65
2023/03/12 00:51:11;;;;;;;10.70;3.40;;;-1.10;96.80;;;;;;5057280;28;20067;-66
2023/03/12 00:53:36;;;;;;;8.32;3.30;;;-1.10;95.90;;;;;;5040788;28;20025;-65
2023/03/12 00:56:04;;;;;;;8.35;3.90;;;-1.20;96.40;;;;;;5046220;28;20326;-65
2023/03/12 00:58:32;;;;;;;13.43;3.85;;;-1.20;97.20;;;;;;5052080;28;20095;-64
2023/03/12 01:01:01;;;;;;;11.75;2.85;;;-1.10;96.80;;;;;;5054675;28;20044;-65
2023/03/12 01:03:29;;;;;;;17.15;4.78;;;-1.00;96.50;;;;;;5057065;28;20127;-65
2023/03/12 01:05:58;;;;;;;6.95;3.22;;;-1.00;96.60;;;;;;5058678;28;20025;-65
2023/03/12 01:08:23;;;;;;;6.97;3.28;;;-0.90;96.80;;;;;;5040967;28;20321;-65
2023/03/12 01:10:49;;;;;;;8.75;4.05;;;-0.80;96.60;;;;;;5047551;28;20109;-64
2023/03/12 01:13:15;;;;;;;10.48;5.30;;;-0.80;96.90;;;;;;5054603;28;20334;-64
2023/03/12 01:15:44;;;;;;;8.05;3.45;;;-0.40;96.50;;;;;;5048407;28;20029;-64
2023/03/12 01:18:10;;;;;;;7.70;3.17;;;-0.30;96.00;;;;;;5048337;28;20043;-64
2023/03/12 01:20:35;;;;;;;8.63;4.28;;;-0.40;96.50;;;;;;5063040;28;20029;-65
2023/03/12 01:23:01;;;;;;;9.63;4.55;;;-0.40;97.00;;;;;;5053101;28;20429;-66
2023/03/12 01:25:27;;;;;;;10.02;4.63;;;-0.30;96.70;;;;;;5052026;28;20032;-65
2023/03/12 01:27:52;;;;;;;11.05;3.75;;;-0.20;96.90;;;;;;5050441;28;20066;-64
2023/03/12 01:30:18;;;;;;;9.93;3.40;;;-0.10;96.60;;;;;;5055361;28;20104;-66
2023/03/12 01:32:43;;;;;;;9.32;3.50;;;-0.10;96.60;;;;;;5043511;28;20036;-65
2023/03/12 01:35:09;;;;;;;8.38;3.72;;;-0.10;96.40;;;;;;5057111;28;20151;-65
2023/03/12 01:37:35;;;;;;;6.97;4.13;;;0.00;96.40;;;;;;5049082;28;20449;-65
2023/03/12 01:40:00;;;;;;;8.43;4.97;;;0.20;96.10;;;;;;5048840;28;20039;-65
2023/03/12 01:42:29;;;;;;;10.05;5.07;;;0.30;96.40;;;;;;5043055;28;20070;-66
2023/03/12 01:45:00;;;;;;;9.52;5.30;;;0.50;95.90;;;;;;5045648;28;20029;-65
2023/03/12 01:47:30;;;;;;;8.90;5.18;;;0.70;95.40;;;;;;5038998;28;20439;-64
2023/03/12 01:49:57;;;;;;;11.60;5.22;;;0.90;95.10;;;;;;5048747;28;20036;-65
2023/03/12 01:52:28;;;;;;;10.52;5.28;;;1.00;95.10;;;;;;5047184;28;20029;-65
2023/03/12 01:55:03;;;;;;;9.63;5.95;;;1.10;95.10;;;;;;5052298;28;20026;-65
2023/03/12 01:57:45;;;;;;;11.73;5.35;;;1.20;94.90;;;;;;5059964;28;20033;-64
2023/03/12 02:00:15;;;;;;;11.73;5.05;;;1.20;94.90;;;;;;5049672;28;20041;-65
2023/03/12 02:02:43;;;;;;;12.30;5.32;;;1.30;95.00;;;;;;5045700;28;20548;-65
2023/03/12 02:05:34;;;;;;;9.55;5.20;;;1.30;95.10;;;;;;5062665;28;20414;-65
2023/03/12 02:08:00;;;;;;;10.90;5.35;;;1.40;95.00;;;;;;5052030;28;20017;-64
2023/03/12 02:10:26;;;;;;;8.48;4.30;;;1.40;95.10;;;;;;5049234;28;20032;-65
2023/03/12 02:12:53;;;;;;;9.07;4.90;;;1.40;95.10;;;;;;5045654;28;20326;-64
2023/03/12 02:15:18;;;;;;;9.07;4.43;;;1.40;95.40;;;;;;5051896;28;20036;-64
2023/03/12 02:17:44;;;;;;;7.88;3.90;;;1.30;95.60;;;;;;5044543;28;20372;-65
2023/03/12 02:20:18;;;;;;;10.43;4.60;;;1.20;95.90;;;;;;5021030;28;20052;-65
2023/03/12 02:22:51;;;;;;;8.77;5.05;;;1.00;96.20;;;;;;5035837;28;20164;-65
2023/03/12 02:25:36;;;;;;;8.32;3.78;;;1.00;96.60;;;;;;5037573;28;20021;-65
2023/03/12 02:28:05;;;;;;;10.23;4.90;;;1.20;96.60;;;;;;5035522;28;20064;-64
2023/03/12 02:30:31;;;;;;;11.63;5.10;;;1.20;96.60;;;;;;5036530;28;20029;-64
2023/03/12 02:33:06;;;;;;;7.95;4.82;;;1.30;96.70;;;;;;5037538;28;20426;-65
2023/03/12 02:35:32;;;;;;;10.75;5.40;;;1.30;96.80;;;;;;5028725;28;20610;-64
2023/03/12 02:37:57;;;;;;;7.63;4.88;;;1.50;96.70;;;;;;5031428;28;20033;-64
2023/03/12 02:40:46;;;;;;;12.02;5.53;;;1.60;96.30;;;;;;5021148;28;21756;-65
2023/03/12 02:43:14;;;;;;;10.60;5.22;;;1.80;95.90;;;;;;5024712;28;20019;-63
2023/03/12 02:45:39;;;;;;;9.52;5.63;;;1.90;95.70;;;;;;5020300;28;20022;-64
2023/03/12 02:48:08;;;;;;;9.38;5.25;;;1.90;95.80;;;;;;5021246;28;20029;-63
2023/03/12 02:50:33;;;;;;;11.80;5.75;;;2.00;95.80;;;;;;5028348;28;20035;-64
2023/03/12 02:52:59;;;;;;;9.63;6.28;;;2.00;95.80;;;;;;5041526;28;20021;-63
2023/03/12 02:55:24;;;;;;;13.55;5.93;;;2.10;95.50;;;;;;5048692;28;20028;-64
2023/03/12 02:57:50;;;;;;;11.35;5.88;;;2.20;95.30;;;;;;5036733;28;20036;-64
2023/03/12 03:00:16;;;;;;;10.18;5.40;;;2.30;95.20;;;;;;5046749;28;20049;-64
2023/03/12 03:02:42;;;;;;;10.38;5.00;;;2.30;95.20;;;;;;5037087;28;20075;-63
2023/03/12 03:05:09;;;;;;;9.38;5.10;;;2.30;95.30;;;;;;5049939;28;20048;-64
2023/03/12 03:07:35;;;;;;;10.25;4.75;;;2.30;95.30;;;;;;5043738;28;20033;-64
2023/03/12 03:10:04;;;;;;;11.23;5.10;;;2.30;95.30;;;;;;5046209;28;20067;-64
2023/03/12 03:12:33;;;;;;;14.27;6.28;;;2.30;95.50;;;;;;5050333;28;20083;-63
2023/03/12 03:14:59;;;;;;;9.00;4.85;;;2.30;95.60;;;;;;5045463;28;20424;-64
2023/03/12 03:17:25;;;;;;;8.60;4.57;;;2.10;96.20;;;;;;5041882;28;20057;-64
2023/03/12 03:19:51;;;;;;;7.80;4.63;;;2.10;96.60;;;;;;5048108;28;20031;-64
2023/03/12 03:22:21;;;;;;;8.60;4.68;;;2.00;97.10;;;;;;5058160;28;21539;-64
2023/03/12 03:24:47;;;;;;;8.60;4.82;;;1.90;97.20;;;;;;5053221;28;20425;-63
2023/03/12 03:27:13;;;;;;;9.88;4.70;;;1.90;97.30;;;;;;5049840;28;20104;-64
2023/03/12 03:29:38;;;;;;;8.60;4.72;;;1.70;97.40;;;;;;5036845;28;20109;-63
2023/03/12 03:32:05;;;;;;;12.00;5.95;;;1.80;97.80;;;;;;5044188;28;20083;-64
2023/03/12 03:34:31;;;;;;;8.93;4.30;;;1.90;97.70;;;;;;5036570;28;20029;-64
2023/03/12 03:36:56;;;;;;;7.38;4.57;;;1.90;97.50;;;;;;5030894;28;20040;-64
2023/03/12 03:39:24;;;;;;;8.02;4.57;;;2.00;97.50;;;;;;5045860;28;20103;-64
2023/03/12 03:41:50;;;;;;;8.40;4.38;;;2.00;97.50;;;;;;5052919;28;20075;-63
2023/03/12 03:44:16;;;;;;;10.35;4.47;;;2.00;97.60;;;;;;5044911;28;20021;-64
2023/03/12 03:46:42;;;;;;;9.63;4.95;;;2.10;97.30;;;;;;5046877;28;20075;-63
2023/03/12 03:49:08;;;;;;;8.77;4.32;;;2.00;97.50;;;;;;5054165;28;20020;-64
2023/03/12 03:51:33;;;;;;;8.25;4.78;;;2.00;97.60;;;;;;5041938;28;20044;-64
2023/03/12 03:53:59;;;;;;;8.23;5.00;;;2.00;97.80;;;;;;5070437;28;20029;-64
2023/03/12 03:56:24;;;;;;;8.98;4.70;;;2.10;97.90;;;;;;5048170;28;20418;-64
2023/03/12 03:58:50;;;;;;;7.45;3.85;;;2.10;97.80;;;;;;5045035;28;20032;-64
2023/03/12 04:01:16;;;;;;;7.20;4.05;;;2.20;97.80;;;;;;5053212;28;20123;-63
2023/03/12 04:03:41;;;;;;;6.75;4.45;;;2.20;97.70;;;;;;5058013;28;20037;-63
2023/03/12 04:06:07;;;;;;;11.43;4.25;;;2.30;97.60;;;;;;5044430;28;20021;-63
2023/03/12 04:08:35;;;;;;;8.95;4.50;;;2.30;97.50;;;;;;5046047;28;20033;-63
2023/03/12 04:11:13;;;;;;;8.55;4.25;;;2.30;97.70;;;;;;5057792;28;20021;-63
2023/03/12 04:13:40;;;;;;;10.25;4.50;;;2.30;97.80;;;;;;5046661;28;20025;-62
2023/03/12 04:16:06;;;;;;;10.02;4.05;;;2.30;97.80;;;;;;5055513;28;20032;-65
2023/03/12 04:18:37;;;;;;;6.53;3.88;;;2.40;97.90;;;;;;5056192;28;20036;-63
2023/03/12 04:21:04;;;;;;;8.15;4.22;;;2.40;98.00;;;;;;5057544;28;20067;-65
2023/03/12 04:23:30;;;;;;;5.72;3.38;;;2.40;98.00;;;;;;5057499;28;20041;-64
2023/03/12 04:25:56;;;;;;;8.55;4.25;;;2.50;98.00;;;;;;5058448;28;20036;-64
2023/03/12 04:28:21;;;;;;;9.32;4.10;;;2.40;98.00;;;;;;5042932;28;20032;-64
2023/03/12 04:31:01;;;;;;;10.52;4.20;;;2.30;98.00;;;;;;5051098;28;20021;-64
2023/03/12 04:33:28;;;;;;;6.70;3.97;;;2.30;98.00;;;;;;5045788;28;20045;-64
2023/03/12 04:35:54;;;;;;;6.70;3.92;;;2.20;98.00;;;;;;5051150;28;20075;-64
2023/03/12 04:38:24;;;;;;;10.63;4.05;;;2.30;98.00;;;;;;5047433;28;20116;-64
2023/03/12 04:41:07;;;;;;;6.68;4.03;;;2.20;98.00;;;;;;5052961;28;20037;-64
2023/03/12 04:43:34;;;;;;;7.30;3.75;;;2.20;98.00;;;;;;5050083;28;20032;-64
2023/03/12 04:46:01;;;;;;;7.93;4.25;;;2.20;97.90;;;;;;5041441;28;20056;-64
2023/03/12 04:48:27;;;;;;;8.07;3.97;;;2.20;97.80;;;;;;5040821;28;20029;-64
2023/03/12 04:50:53;;;;;;;7.03;4.20;;;2.20;98.00;;;;;;5057349;28;20028;-63
2023/03/12 04:53:19;;;;;;;7.40;4.00;;;2.20;97.80;;;;;;5063410;28;20382;-64
2023/03/12 04:55:44;;;;;;;7.60;4.50;;;2.20;97.60;;;;;;5052762;28;20028;-64
2023/03/12 04:58:10;;;;;;;9.18;3.85;;;2.30;98.00;;;;;;5051805;28;20022;-64
2023/03/12 05:00:38;;;;;;;7.00;3.88;;;2.30;98.00;;;;;;5045176;28;20049;-64
2023/03/12 05:03:04;;;;;;;9.70;4.03;;;2.30;98.00;;;;;;5055285;28;20029;-63
2023/03/12 05:05:29;;;;;;;7.25;3.85;;;2.30;98.00;;;;;;5044709;28;20096;-64
2023/03/12 05:07:55;;;;;;;7.72;3.53;;;2.30;98.00;;;;;;5057037;28;20037;-64
2023/03/12 05:10:21;;;;;;;7.80;3.75;;;2.30;98.00;;;;;;5065027;28;20413;-65
2023/03/12 05:12:46;;;;;;;9.95;3.67;;;2.30;98.00;;;;;;5074000;28;20406;-63
2023/03/12 05:15:12;;;;;;;8.15;3.83;;;2.30;98.00;;;;;;5056204;28;21581;-63
2023/03/12 05:17:37;;;;;;;7.80;3.67;;;2.40;98.00;;;;;;5029405;28;20064;-64
2023/03/12 05:20:05;;;;;;;8.07;3.40;;;2.40;98.00;;;;;;5035588;28;20033;-63
2023/03/12 05:22:30;;;;;;;8.50;3.80;;;2.40;98.00;;;;;;5032773;28;20028;-64
2023/03/12 05:24:56;;;;;;;5.75;3.33;;;2.40;98.00;;;;;;5031801;28;20111;-63
2023/03/12 05:27:24;;;;;;;7.78;3.60;;;2.30;98.00;;;;;;5033776;28;20086;-64
2023/03/12 05:29:50;;;;;;;6.80;3.75;;;2.30;98.00;;;;;;5035678;28;20024;-64
2023/03/12 05:32:16;;;;;;;6.68;4.00;;;2.30;98.00;;;;;;5045957;28;20326;-63
2023/03/12 05:34:41;;;;;;;6.45;3.65;;;2.30;98.00;;;;;;5051665;28;20025;-64
2023/03/12 05:37:07;;;;;;;6.47;3.60;;;2.30;98.00;;;;;;5038993;28;20090;-64
2023/03/12 05:39:32;;;;;;;6.03;3.30;;;2.30;98.00;;;;;;5035611;28;20036;-64
2023/03/12 05:41:59;;;;;;;11.07;4.05;;;2.20;97.70;;;;;;5055546;28;20160;-64
2023/03/12 05:44:25;;;;;;;8.65;4.72;;;2.20;98.00;;;;;;5058182;28;20390;-64
2023/03/12 05:46:52;;;;;;;7.53;3.58;;;2.20;98.00;;;;;;5042265;28;20346;-64
2023/03/12 05:49:18;;;;;;;7.47;4.28;;;2.20;97.90;;;;;;5039140;28;20032;-64
2023/03/12 05:51:49;;;;;;;8.63;4.32;;;2.20;98.00;;;;;;5058327;28;20294;-64
2023/03/12 05:54:15;;;;;;;9.68;4.55;;;2.20;98.00;;;;;;5063500;28;20032;-63
2023/03/12 05:56:41;;;;;;;10.95;5.07;;;2.20;98.00;;;;;;5059299;28;20087;-64
2023/03/12 05:59:09;;;;;;;8.55;5.10;;;2.30;98.00;;;;;;5061078;28;20033;-64
2023/03/12 06:01:35;;;;;;;7.78;4.65;;;2.30;98.00;;;;;;5054722;28;20039;-64
2023/03/12 06:04:01;;;;;;;9.23;5.70;;;2.40;98.00;;;;;;5040095;28;20037;-63
2023/03/12 06:06:28;;;;;;;10.07;5.65;;;2.40;98.00;;;;;;5052122;28;20032;-64
2023/03/12 06:08:54;;;;;;;8.82;6.00;;;2.40;98.00;;;;;;5035508;28;20029;-64
2023/03/12 06:11:19;;;;;;;10.15;5.88;;;2.50;98.00;;;;;;5062829;28;20429;-64
2023/03/12 06:13:45;;;;;;;9.60;6.05;;;2.50;98.00;;;;;;5050156;28;20029;-64
2023/03/12 06:16:18;;;;;;;10.10;5.95;;;2.50;98.00;;;;;;5045022;28;20087;-64
2023/03/12 06:18:43;;;;;;;13.13;7.23;;;2.50;97.20;;;;;;5038012;28;20028;-65
2023/03/12 06:21:10;;;;;;;13.18;7.88;;;2.50;97.40;;;;;;5063876;28;20287;-65
2023/03/12 06:23:36;;;;;;;17.40;8.38;;;2.40;96.60;;;;;;5037969;28;20037;-65
2023/03/12 06:26:01;;;;;;;12.90;7.78;;;2.40;96.00;;;;;;5017110;28;20028;-65
2023/03/12 06:28:27;;;;;;;16.48;8.88;;;2.40;94.40;;;;;;5066726;28;20031;-66
2023/03/12 06:30:54;;;;;;;13.75;8.30;;;2.30;93.70;;;;;;5043590;28;20029;-66
2023/03/12 06:33:19;;;;;;;13.25;8.07;;;2.30;93.40;;;;;;5021687;28;20033;-66
2023/03/12 06:35:45;;;;;;;19.45;11.15;;;2.30;91.20;;;;;;5050744;28;20051;-66
2023/03/12 06:38:13;;;;;;;34.13;18.02;;;2.30;89.70;;;;;;5074051;28;20028;-66
2023/03/12 06:40:39;;;;;;;19.77;10.77;;;2.30;88.70;;;;;;5053973;28;20169;-66
2023/03/12 06:43:10;;;;;;;21.45;11.52;;;2.30;87.20;;;;;;5064963;28;20033;-65
2023/03/12 06:45:36;;;;;;;24.95;12.18;;;2.30;86.20;;;;;;5038267;28;20071;-66
2023/03/12 06:48:02;;;;;;;17.00;10.32;;;2.30;84.50;;;;;;5049418;28;20063;-65
2023/03/12 06:50:28;;;;;;;16.10;10.27;;;2.40;83.50;;;;;;5049422;28;20414;-65
2023/03/12 06:52:56;;;;;;;17.55;9.98;;;2.40;83.60;;;;;;5048635;28;20025;-65
2023/03/12 06:55:22;;;;;;;112.30;35.33;;;2.40;83.60;;;;;;5035078;28;20431;-65
2023/03/12 06:57:47;;;;;;;23.90;11.07;;;2.50;82.70;;;;;;5036090;28;20104;-65
2023/03/12 07:00:13;;;;;;;15.88;9.55;;;2.50;82.80;;;;;;5036359;28;20068;-65
2023/03/12 07:02:39;;;;;;;16.30;10.10;;;2.60;82.40;;;;;;5053449;28;20060;-64
2023/03/12 07:05:05;;;;;;;16.65;9.80;;;2.60;81.50;;;;;;5050174;28;20056;-64
2023/03/12 07:07:34;;;;;;;16.38;8.05;;;2.70;80.60;;;;;;5024743;28;20540;-64
2023/03/12 07:09:59;;;;;;;15.77;9.00;;;2.80;81.50;;;;;;5049122;28;20059;-67
2023/03/12 07:12:25;;;;;;;12.73;8.02;;;2.90;81.60;;;;;;5058370;28;20398;-66
2023/03/12 07:14:50;;;;;;;14.40;9.63;;;3.00;81.20;;;;;;5053760;28;20318;-66
2023/03/12 07:17:16;;;;;;;53.03;35.75;;;3.20;81.20;;;;;;5050967;28;20318;-66
2023/03/12 07:19:41;;;;;;;13.20;7.30;;;3.30;81.10;;;;;;5054337;28;20376;-66
2023/03/12 07:22:07;;;;;;;16.10;9.95;;;3.40;82.40;;;;;;5052685;28;20443;-65
2023/03/12 07:24:32;;;;;;;12.25;8.43;;;3.60;81.80;;;;;;5061024;28;20421;-65
2023/03/12 07:26:58;;;;;;;9.52;6.60;;;3.60;83.00;;;;;;5047784;28;20032;-65
2023/03/12 07:29:23;;;;;;;11.82;6.53;;;3.70;82.70;;;;;;5056125;28;20116;-65
2023/03/12 07:31:49;;;;;;;11.20;6.57;;;3.90;83.90;;;;;;5052477;28;20036;-65
2023/03/12 07:34:14;;;;;;;9.70;6.25;;;4.00;83.70;;;;;;5051326;28;20434;-65
2023/03/12 07:36:40;;;;;;;10.13;6.60;;;4.10;83.20;;;;;;5054079;28;20389;-65
2023/03/12 07:39:05;;;;;;;9.95;6.20;;;4.20;84.60;;;;;;5038953;28;20029;-65
2023/03/12 07:41:31;;;;;;;11.05;6.43;;;4.30;83.60;;;;;;5042127;28;20096;-65
2023/03/12 07:43:57;;;;;;;10.40;6.38;;;4.30;83.80;;;;;;5038307;28;20033;-65
2023/03/12 07:46:22;;;;;;;14.38;8.00;;;4.30;86.90;;;;;;5045212;28;20099;-65
2023/03/12 07:48:48;;;;;;;13.23;8.75;;;4.30;87.10;;;;;;5046279;28;20116;-65
2023/03/12 07:51:13;;;;;;;11.40;7.50;;;4.30;87.40;;;;;;5046475;28;20374;-65
2023/03/12 07:53:39;;;;;;;11.18;6.97;;;4.40;85.90;;;;;;5051926;28;20459;-65
2023/03/12 07:56:05;;;;;;;9.05;5.57;;;4.60;86.50;;;;;;5050423;28;20036;-64
2023/03/12 07:58:35;;;;;;;10.38;6.43;;;4.80;87.20;;;;;;5057103;28;20528;-65
2023/03/12 08:01:01;;;;;;;8.82;5.80;;;4.90;87.40;;;;;;5054335;28;20051;-65
2023/03/12 08:03:26;;;;;;;8.77;5.50;;;5.10;88.40;;;;;;5052058;28;20033;-65
2023/03/12 08:06:00;;;;;;;8.07;5.10;;;5.20;91.00;;;;;;5051569;28;20052;-65
2023/03/12 08:08:27;;;;;;;10.13;5.30;;;5.20;90.40;;;;;;5051766;28;20021;-65
2023/03/12 08:10:52;;;;;;;8.90;5.78;;;5.20;91.40;;;;;;5054527;28;20083;-65
2023/03/12 08:13:18;;;;;;;8.05;5.20;;;5.30;90.60;;;;;;5049859;28;20533;-65
2023/03/12 08:15:43;;;;;;;6.95;4.43;;;5.30;90.70;;;;;;5039012;28;20040;-65
2023/03/12 08:18:10;;;;;;;7.28;4.10;;;5.50;91.60;;;;;;5049183;28;20021;-63
2023/03/12 08:20:36;;;;;;;13.95;7.38;;;5.60;92.50;;;;;;5039286;28;20104;-64
2023/03/12 08:23:03;;;;;;;7.28;4.32;;;5.60;93.20;;;;;;5042626;28;20112;-64
2023/03/12 08:25:28;;;;;;;7.40;4.18;;;5.80;92.40;;;;;;5055301;28;20023;-64
2023/03/12 08:27:54;;;;;;;8.50;4.40;;;5.80;92.90;;;;;;5045493;28;20025;-65
2023/03/12 08:30:20;;;;;;;8.32;5.07;;;5.90;93.20;;;;;;5054881;28;20033;-63
2023/03/12 08:32:45;;;;;;;6.28;3.58;;;6.00;92.70;;;;;;5073044;28;20024;-64
2023/03/12 08:35:11;;;;;;;6.78;4.00;;;6.20;93.40;;;;;;5061879;28;20025;-63
2023/03/12 08:37:37;;;;;;;7.65;3.92;;;6.40;93.20;;;;;;5035655;28;20067;-65
2023/03/12 08:40:11;;;;;;;7.07;3.17;;;6.70;96.10;;;;;;5035397;28;20057;-64
2023/03/12 08:42:38;;;;;;;7.07;3.70;;;6.90;96.60;;;;;;5053101;28;20024;-65
2023/03/12 08:45:04;;;;;;;6.68;3.60;;;7.00;95.70;;;;;;5040302;28;20017;-63
2023/03/12 08:47:30;;;;;;;8.25;4.00;;;7.00;96.10;;;;;;5048153;28;20440;-64
2023/03/12 08:49:55;;;;;;;5.28;2.80;;;6.90;95.60;;;;;;5055557;28;20306;-64
2023/03/12 08:52:22;;;;;;;6.00;2.58;;;6.90;96.00;;;;;;5034600;28;20318;-64
2023/03/12 08:54:47;;;;;;;11.20;6.00;;;7.10;96.40;;;;;;5050949;28;20322;-64
2023/03/12 08:57:14;;;;;;;5.65;2.42;;;7.30;95.80;;;;;;5057391;28;20039;-65
2023/03/12 08:59:40;;;;;;;6.47;2.28;;;7.60;98.00;;;;;;5046644;28;20050;-64
2023/03/12 09:02:05;;;;;;;6.30;2.88;;;7.60;97.90;;;;;;5048582;28;20030;-64
2023/03/12 09:04:31;;;;;;;9.27;2.90;;;7.60;97.70;;;;;;5058690;28;20036;-64
2023/03/12 09:06:56;;;;;;;6.47;3.90;;;7.60;98.00;;;;;;5054337;28;20106;-64
2023/03/12 09:09:23;;;;;;;7.22;3.58;;;7.30;97.00;;;;;;5053694;28;20027;-65
2023/03/12 09:11:49;;;;;;;6.57;3.40;;;7.20;96.50;;;;;;5050764;28;20052;-65
2023/03/12 09:14:14;;;;;;;9.93;3.95;;;7.30;96.70;;;;;;5045953;28;20053;-65
2023/03/12 09:16:40;;;;;;;9.95;3.28;;;7.40;96.70;;;;;;5043296;28;20033;-65
2023/03/12 09:19:05;;;;;;;6.50;2.65;;;7.50;97.70;;;;;;5049735;28;20047;-65
2023/03/12 09:21:31;;;;;;;7.00;3.13;;;7.50;98.00;;;;;;5044086;28;20109;-65
2023/03/12 09:24:00;;;;;;;9.05;4.68;;;7.70;98.00;;;;;;5050217;28;20139;-65
2023/03/12 09:26:25;;;;;;;6.93;2.88;;;7.90;97.60;;;;;;5054330;28;20095;-65
2023/03/12 09:28:51;;;;;;;7.63;3.05;;;7.80;98.00;;;;;;5047632;28;20025;-65
2023/03/12 09:31:16;;;;;;;7.28;3.05;;;7.80;97.70;;;;;;5057461;28;20075;-65
2023/03/12 09:33:42;;;;;;;7.63;2.95;;;7.70;97.20;;;;;;5053490;28;20345;-65
2023/03/12 09:36:08;;;;;;;7.97;3.13;;;7.60;96.10;;;;;;5057415;28;20025;-65
2023/03/12 09:38:34;;;;;;;7.15;3.30;;;7.60;95.90;;;;;;5047476;28;20029;-65
2023/03/12 09:41:02;;;;;;;8.18;3.35;;;7.50;95.90;;;;;;5042854;28;20044;-65
2023/03/12 09:43:46;;;;;;;4.85;2.25;;;7.60;95.50;;;;;;5043757;28;20112;-66
2023/03/12 09:46:18;;;;;;;8.65;2.95;;;7.70;96.70;;;;;;5042997;28;20025;-65
2023/03/12 09:48:44;;;;;;;8.63;3.72;;;7.70;97.70;;;;;;5048377;28;20029;-65
2023/03/12 09:51:22;;;;;;;8.50;3.15;;;7.80;97.20;;;;;;5051040;28;20417;-65
2023/03/12 09:54:06;;;;;;;8.80;3.13;;;7.90;97.00;;;;;;5054788;28;20341;-65
2023/03/12 09:56:33;;;;;;;11.00;3.50;;;8.00;97.60;;;;;;5051743;28;20029;-64
2023/03/12 09:58:59;;;;;;;9.68;3.22;;;8.10;97.80;;;;;;5051089;28;20029;-64
2023/03/12 10:01:32;;;;;;;8.18;3.58;;;8.20;97.90;;;;;;5044311;28;20045;-64
2023/03/12 10:04:22;;;;;;;7.50;3.17;;;8.30;98.00;;;;;;5047328;28;20056;-67
2023/03/12 10:06:51;;;;;;;11.50;4.47;;;8.50;98.00;;;;;;5055431;28;20029;-66
2023/03/12 10:09:29;;;;;;;7.80;3.10;;;8.50;98.00;;;;;;5049263;28;20029;-66
2023/03/12 10:11:55;;;;;;;13.80;4.75;;;8.50;98.00;;;;;;5048559;28;20032;-64
2023/03/12 10:14:42;;;;;;;10.93;4.13;;;8.70;98.00;;;;;;5037938;28;20032;-65
2023/03/12 10:17:30;;;;;;;8.65;3.47;;;8.80;98.00;;;;;;5032492;28;20029;-66
2023/03/12 10:20:11;;;;;;;6.93;2.20;;;8.90;98.00;;;;;;5055652;28;20033;-65
2023/03/12 10:23:11;;;;;;;9.75;2.20;;;8.90;98.00;;;;;;5052576;28;20108;-65
2023/03/12 10:26:05;;;;;;;6.90;2.83;;;8.80;98.00;;;;;;5055951;28;20029;-65
2023/03/12 10:28:39;;;;;;;13.47;3.50;;;8.80;98.00;;;;;;5042516;28;20021;-65
2023/03/12 10:31:33;;;;;;;12.88;5.57;;;8.60;98.00;;;;;;5056293;28;20771;-65
2023/03/12 10:34:02;;;;;;;13.73;4.70;;;8.40;98.00;;;;;;5050226;28;20102;-65
2023/03/12 10:36:37;;;;;;;11.63;3.33;;;8.30;98.00;;;;;;5046066;28;20044;-65
2023/03/12 10:39:09;;;;;;;9.40;2.58;;;8.40;98.00;;;;;;5051591;28;20029;-65
2023/03/12 10:41:35;;;;;;;9.68;3.03;;;8.40;98.00;;;;;;5042214;28;20029;-65
2023/03/12 10:44:06;;;;;;;8.27;2.40;;;8.60;98.00;;;;;;5060322;28;20033;-65
2023/03/12 10:46:50;;;;;;;8.07;3.00;;;8.70;98.00;;;;;;5044162;28;20115;-65
2023/03/12 10:49:28;;;;;;;7.47;2.83;;;8.60;98.00;;;;;;5047404;28;20024;-65
2023/03/12 10:52:02;;;;;;;8.57;2.72;;;8.60;98.00;;;;;;5046549;28;20376;-65
2023/03/12 10:54:34;;;;;;;8.73;2.63;;;8.50;98.00;;;;;;5057175;28;20313;-65
2023/03/12 10:57:00;;;;;;;9.77;3.28;;;8.50;98.00;;;;;;5055272;28;20037;-64
2023/03/12 10:59:34;;;;;;;11.00;4.65;;;8.50;98.00;;;;;;5056265;28;20063;-64
2023/03/12 11:02:01;;;;;;;12.43;3.75;;;8.60;98.00;;;;;;5048664;28;20032;-65
2023/03/12 11:04:30;;;;;;;13.45;4.80;;;8.70;98.00;;;;;;5048151;28;20667;-64
2023/03/12 11:07:26;;;;;;;8.70;3.40;;;8.80;98.00;;;;;;5054059;28;20028;-64
2023/03/12 11:10:12;;;;;;;11.07;3.40;;;8.80;98.00;;;;;;5057295;28;20030;-65
2023/03/12 11:12:39;;;;;;;9.18;3.17;;;8.80;98.00;;;;;;5006094;28;20392;-63
2023/03/12 11:15:41;;;;;;;9.75;2.78;;;8.90;98.00;;;;;;5036175;28;20029;-64
2023/03/12 11:18:19;;;;;;;11.95;3.88;;;8.80;97.90;;;;;;5053396;28;20112;-65
2023/03/12 11:20:47;;;;;;;11.93;4.03;;;8.70;97.90;;;;;;5059944;28;20027;-64
2023/03/12 11:23:30;;;;;;;8.80;3.10;;;8.70;98.00;;;;;;5038729;28;20374;-64
2023/03/12 11:26:00;;;;;;;11.27;4.15;;;9.00;98.00;;;;;;5023255;28;20440;-64
2023/03/12 11:28:40;;;;;;;9.98;3.33;;;9.10;97.90;;;;;;5043722;28;20030;-64
2023/03/12 11:31:14;;;;;;;12.38;2.80;;;9.30;97.70;;;;;;5040051;28;20032;-64
2023/03/12 11:33:40;;;;;;;12.23;3.95;;;9.40;97.50;;;;;;5049384;28;20334;-65
2023/03/12 11:36:27;;;;;;;7.43;2.67;;;9.50;97.50;;;;;;5035268;28;20027;-65
2023/03/12 11:38:52;;;;;;;8.40;2.60;;;9.80;96.60;;;;;;5043078;28;20450;-65
2023/03/12 11:41:36;;;;;;;11.90;3.53;;;10.10;96.10;;;;;;5047928;28;20064;-64
2023/03/12 11:44:12;;;;;;;13.43;3.33;;;10.30;95.60;;;;;;5053713;28;20032;-64
2023/03/12 11:47:10;;;;;;;11.18;2.90;;;10.70;95.40;;;;;;5037288;28;20029;-63
2023/03/12 11:50:02;;;;;;;9.10;2.63;;;10.80;94.00;;;;;;5047302;28;20108;-63
2023/03/12 11:53:08;;;;;;;8.30;2.00;;;11.20;93.50;;;;;;5044330;28;20021;-64
2023/03/12 11:55:57;;;;;;;7.45;2.47;;;11.70;91.90;;;;;;5025856;28;20032;-64
2023/03/12 11:58:39;;;;;;;11.00;2.67;;;12.00;90.40;;;;;;5042551;28;20033;-64
2023/03/12 12:01:09;;;;;;;9.52;2.38;;;11.40;91.30;;;;;;5050909;28;20045;-64
2023/03/12 12:03:54;;;;;;;11.88;2.83;;;10.80;91.30;;;;;;5037836;28;20592;-64
2023/03/12 12:06:39;;;;;;;10.00;2.40;;;10.20;92.70;;;;;;5042669;28;20036;-64
2023/03/12 12:09:09;;;;;;;9.07;2.90;;;10.20;93.30;;;;;;5044002;28;20031;-64
2023/03/12 12:12:05;;;;;;;10.45;2.40;;;10.80;93.00;;;;;;5046294;28;20025;-64
2023/03/12 12:14:48;;;;;;;9.82;2.17;;;11.50;90.20;;;;;;5035337;28;20046;-63
2023/03/12 12:17:39;;;;;;;12.93;2.47;;;11.50;89.10;;;;;;5019065;28;20041;-63
2023/03/12 12:20:22;;;;;;;7.75;2.22;;;11.30;89.50;;;;;;5041563;28;20431;-63
2023/03/12 12:23:16;;;;;;;13.00;2.28;;;11.10;90.20;;;;;;5043480;28;20029;-64
2023/03/12 12:26:04;;;;;;;8.02;2.20;;;11.70;90.50;;;;;;5013388;28;20342;-63
2023/03/12 12:28:54;;;;;;;10.27;2.20;;;12.30;87.90;;;;;;5070120;28;20066;-64
2023/03/12 12:31:30;;;;;;;6.97;2.10;;;12.80;86.70;;;;;;5058629;28;20067;-64
2023/03/12 12:34:23;;;;;;;10.57;2.17;;;13.00;85.60;;;;;;5051059;28;20025;-63
2023/03/12 12:36:54;;;;;;;9.50;2.75;;;12.60;85.80;;;;;;5066777;28;20096;-64
2023/03/12 12:39:35;;;;;;;6.93;2.70;;;11.90;86.80;;;;;;5048956;28;20111;-63
2023/03/12 12:42:10;;;;;;;7.10;2.25;;;11.30;88.30;;;;;;5042447;28;20064;-63
2023/03/12 12:44:49;;;;;;;9.45;2.58;;;11.70;89.10;;;;;;5039256;28;20024;-63
2023/03/12 12:47:21;;;;;;;9.10;2.30;;;12.20;87.00;;;;;;5057423;28;20053;-63
2023/03/12 12:49:56;;;;;;;7.47;2.30;;;12.30;85.70;;;;;;5056291;28;20108;-63
2023/03/12 12:52:24;;;;;;;10.32;2.20;;;12.50;85.70;;;;;;5039312;28;20029;-63
2023/03/12 12:55:13;;;;;;;8.88;2.50;;;12.50;85.90;;;;;;5057523;28;20025;-63
2023/03/12 12:57:49;;;;;;;9.05;2.80;;;12.60;85.60;;;;;;5054437;28;20062;-62
2023/03/12 13:00:33;;;;;;;8.30;2.45;;;12.30;86.10;;;;;;5046868;28;20060;-64
2023/03/12 13:03:00;;;;;;;7.05;2.28;;;12.20;86.40;;;;;;5056086;28;20033;-65